Time;durP1;ratioP1;P1;durP2;ratioP2;P2;SDS_P1;SDS_P2;PMS_P1;PMS_P2;Temp;Humidity;BMP_temperature;BMP_pressure;BME280_temperature;BME280_humidity;BME280_pressure;Samples;Min_cycle;Max_cycle;Signal;HPM_P1;HPM_P2
2023/05/07 00:00:40;;;;;;;26.33;19.58;;;14.70;99.90;;;;;;5086610;28;20124;-74
2023/05/07 00:03:06;;;;;;;33.83;19.85;;;13.70;99.90;;;;;;5052087;28;20043;-76
2023/05/07 00:05:32;;;;;;;27.45;20.92;;;14.70;99.90;;;;;;5103001;28;20050;-79
2023/05/07 00:07:58;;;;;;;28.58;20.60;;;15.80;99.90;;;;;;5090646;28;20039;-74
2023/05/07 00:10:23;;;;;;;29.17;21.23;;;14.40;99.90;;;;;;5098883;28;20046;-77
2023/05/07 00:12:49;;;;;;;27.80;21.92;;;15.60;99.90;;;;;;5093344;28;20051;-73
2023/05/07 00:15:15;;;;;;;25.08;17.38;;;14.70;99.90;;;;;;5117072;27;20039;-78
2023/05/07 00:17:40;;;;;;;27.75;20.67;;;15.90;99.90;;;;;;5070092;28;20100;-73
2023/05/07 00:20:07;;;;;;;32.53;23.15;;;14.00;99.90;;;;;;5094621;27;20131;-77
2023/05/07 00:22:32;;;;;;;31.35;22.00;;;15.10;99.90;;;;;;5077242;28;20039;-73
2023/05/07 00:24:59;;;;;;;28.17;22.08;;;15.10;99.90;;;;;;5089552;28;20429;-76
2023/05/07 00:27:25;;;;;;;26.35;21.20;;;14.90;99.90;;;;;;5061751;28;20142;-74
2023/05/07 00:29:51;;;;;;;28.85;20.67;;;14.60;99.90;;;;;;5061345;28;20054;-75
2023/05/07 00:32:16;;;;;;;29.17;22.42;;;14.80;99.90;;;;;;5082761;28;20463;-77
2023/05/07 00:34:43;;;;;;;32.05;22.35;;;15.50;99.90;;;;;;5063325;28;20039;-79
2023/05/07 00:37:09;;;;;;;26.60;19.88;;;15.60;99.90;;;;;;5064892;28;20509;-76
2023/05/07 00:39:35;;;;;;;28.83;22.23;;;16.30;99.90;;;;;;5075845;28;20046;-74
2023/05/07 00:42:01;;;;;;;26.08;19.55;;;14.10;99.90;;;;;;5110774;27;20089;-75
2023/05/07 00:44:26;;;;;;;26.83;19.00;;;16.30;99.90;;;;;;5095521;28;20086;-77
2023/05/07 00:46:53;;;;;;;28.63;22.75;;;14.40;99.90;;;;;;5099554;28;20040;-79
2023/05/07 00:49:20;;;;;;;28.20;21.73;;;14.30;99.90;;;;;;5070268;28;20042;-75
2023/05/07 00:51:46;;;;;;;29.17;22.65;;;14.30;99.90;;;;;;5077769;28;20031;-73
2023/05/07 00:54:13;;;;;;;26.55;20.52;;;14.40;99.90;;;;;;5053439;28;20959;-76
2023/05/07 00:56:39;;;;;;;29.48;23.35;;;14.60;99.90;;;;;;5094448;28;20031;-76
2023/05/07 00:59:06;;;;;;;27.55;21.42;;;16.00;99.90;;;;;;5091551;28;21835;-76
2023/05/07 01:01:32;;;;;;;28.63;19.83;;;14.30;99.90;;;;;;5080232;27;20059;-78
2023/05/07 01:03:58;;;;;;;30.58;21.02;;;13.70;99.90;;;;;;5081240;28;20039;-80
2023/05/07 01:06:25;;;;;;;30.80;23.70;;;16.40;99.90;;;;;;5096195;28;20074;-77
2023/05/07 01:08:52;;;;;;;33.92;24.00;;;13.90;99.90;;;;;;5077912;27;20453;-76
2023/05/07 01:11:22;;;;;;;33.15;24.92;;;14.60;99.90;;;;;;5074240;28;20071;-80
2023/05/07 01:13:48;;;;;;;40.65;29.67;;;14.90;99.90;;;;;;5089216;28;20365;-78
2023/05/07 01:16:14;;;;;;;33.33;27.05;;;15.00;99.90;;;;;;5073522;27;20035;-79
2023/05/07 01:18:40;;;;;;;28.85;22.63;;;13.80;99.90;;;;;;5085268;28;20043;-80
2023/05/07 01:21:08;;;;;;;28.40;20.40;;;15.30;99.90;;;;;;5087755;28;20062;-81
2023/05/07 01:23:35;;;;;;;35.17;25.35;;;13.70;99.90;;;;;;5084773;28;20072;-77
2023/05/07 01:26:01;;;;;;;29.80;24.40;;;16.30;99.90;;;;;;5088372;28;20063;-78
2023/05/07 01:28:26;;;;;;;31.20;25.17;;;13.60;99.90;;;;;;5106205;27;20059;-79
2023/05/07 01:30:58;;;;;;;34.05;27.05;;;16.10;99.90;;;;;;5102098;28;20044;-77
2023/05/07 01:33:25;;;;;;;33.15;24.70;;;16.40;99.90;;;;;;5087579;28;20032;-78
2023/05/07 01:35:53;;;;;;;30.27;21.23;;;15.50;99.90;;;;;;5102222;28;20059;-77
2023/05/07 01:38:21;;;;;;;33.83;26.08;;;13.60;99.90;;;;;;5085772;27;20130;-79
2023/05/07 01:40:47;;;;;;;33.63;26.20;;;15.00;99.90;;;;;;5089790;28;20071;-78
2023/05/07 01:43:12;;;;;;;32.47;25.23;;;14.00;99.90;;;;;;5054731;28;20193;-79
2023/05/07 01:45:39;;;;;;;33.70;24.27;;;13.90;99.90;;;;;;5087561;28;20044;-78
2023/05/07 01:48:06;;;;;;;35.15;25.83;;;14.40;99.90;;;;;;5122902;27;20088;-77
2023/05/07 01:50:33;;;;;;;33.13;24.50;;;15.60;99.90;;;;;;5116511;27;20047;-77
2023/05/07 01:52:59;;;;;;;34.33;24.13;;;14.80;99.90;;;;;;5092209;28;20031;-76
2023/05/07 01:55:25;;;;;;;44.33;30.95;;;15.70;99.90;;;;;;5099552;27;20039;-74
2023/05/07 01:57:50;;;;;;;37.22;27.73;;;14.20;99.90;;;;;;5084293;28;20031;-76
2023/05/07 02:00:17;;;;;;;34.65;24.20;;;15.40;99.90;;;;;;5089476;28;20128;-75
2023/05/07 02:02:43;;;;;;;41.95;28.77;;;14.50;99.90;;;;;;5075273;27;20057;-79
2023/05/07 02:05:09;;;;;;;34.67;25.73;;;15.30;99.90;;;;;;5083108;28;20043;-76
2023/05/07 02:07:35;;;;;;;30.92;22.25;;;14.70;99.90;;;;;;5095010;27;20044;-77
2023/05/07 02:10:00;;;;;;;33.95;25.15;;;15.80;99.90;;;;;;5085885;28;20089;-79
2023/05/07 02:12:26;;;;;;;36.20;24.65;;;14.10;99.90;;;;;;5118561;27;20028;-78
2023/05/07 02:14:52;;;;;;;37.10;27.05;;;15.50;99.90;;;;;;5081925;28;20081;-74
2023/05/07 02:17:18;;;;;;;34.55;25.70;;;14.20;99.90;;;;;;5090748;28;20040;-77
2023/05/07 02:19:44;;;;;;;42.35;28.77;;;15.80;99.90;;;;;;5101684;28;20113;-78
2023/05/07 02:22:10;;;;;;;43.53;32.05;;;14.20;99.90;;;;;;5073247;28;20036;-75
2023/05/07 02:24:35;;;;;;;37.30;26.52;;;13.90;99.90;;;;;;5103744;27;20040;-78
2023/05/07 02:27:02;;;;;;;37.95;26.08;;;15.90;99.90;;;;;;5098169;28;20664;-75
2023/05/07 02:29:28;;;;;;;32.90;22.95;;;14.40;99.90;;;;;;5096339;27;20115;-78
2023/05/07 02:31:55;;;;;;;39.35;29.48;;;15.80;99.90;;;;;;5096131;28;20150;-76
2023/05/07 02:34:21;;;;;;;44.35;29.70;;;15.00;99.90;;;;;;5084947;28;20062;-74
2023/05/07 02:36:47;;;;;;;37.05;27.75;;;15.40;99.90;;;;;;5085724;28;20492;-76
2023/05/07 02:39:13;;;;;;;44.00;30.75;;;13.80;99.90;;;;;;5059774;28;20119;-78
2023/05/07 02:41:38;;;;;;;38.75;29.40;;;15.90;99.90;;;;;;5070363;28;20040;-75
2023/05/07 02:44:04;;;;;;;37.70;28.00;;;14.20;99.90;;;;;;5078675;28;20047;-78
2023/05/07 02:46:30;;;;;;;39.85;28.88;;;15.30;99.90;;;;;;5071270;28;20350;-73
2023/05/07 02:48:56;;;;;;;31.80;21.65;;;14.20;99.90;;;;;;5082880;28;20483;-75
2023/05/07 02:51:22;;;;;;;37.60;24.70;;;14.00;99.90;;;;;;5057148;28;20788;-77
2023/05/07 02:53:48;;;;;;;34.40;22.50;;;13.80;99.90;;;;;;5087646;28;20036;-76
2023/05/07 02:56:14;;;;;;;35.45;25.02;;;13.60;99.90;;;;;;5086711;28;20396;-76
2023/05/07 02:58:41;;;;;;;38.03;26.05;;;14.70;99.90;;;;;;5081644;28;20041;-76
2023/05/07 03:01:11;;;;;;;39.92;26.63;;;15.80;99.90;;;;;;5099823;28;20055;-77
2023/05/07 03:03:36;;;;;;;42.10;28.95;;;16.00;99.90;;;;;;5085906;28;20432;-77
2023/05/07 03:06:02;;;;;;;42.80;29.80;;;14.00;99.90;;;;;;5084811;28;20070;-76
2023/05/07 03:08:28;;;;;;;35.75;24.88;;;13.70;99.90;;;;;;5074510;28;20039;-75
2023/05/07 03:10:54;;;;;;;37.95;25.38;;;14.60;99.90;;;;;;5090900;28;20085;-77
2023/05/07 03:13:19;;;;;;;31.85;21.60;;;13.60;99.90;;;;;;5086930;28;20032;-75
2023/05/07 03:15:45;;;;;;;30.83;21.35;;;15.90;99.90;;;;;;5105772;28;20092;-75
2023/05/07 03:18:11;;;;;;;32.08;21.58;;;15.80;99.90;;;;;;5071874;28;20062;-75
2023/05/07 03:20:36;;;;;;;33.80;24.27;;;13.80;99.90;;;;;;5061333;28;20043;-78
2023/05/07 03:23:02;;;;;;;34.97;25.77;;;13.30;99.90;;;;;;5085253;28;20066;-77
2023/05/07 03:25:29;;;;;;;35.50;24.77;;;15.90;99.90;;;;;;5087440;28;20040;-77
2023/05/07 03:27:56;;;;;;;37.33;26.63;;;16.00;99.90;;;;;;5102591;28;20706;-77
2023/05/07 03:30:22;;;;;;;37.38;26.75;;;14.70;99.90;;;;;;5085256;28;20127;-78
2023/05/07 03:32:47;;;;;;;38.17;26.38;;;13.50;99.90;;;;;;5075482;28;20543;-79
2023/05/07 03:35:13;;;;;;;39.92;25.63;;;13.30;99.90;;;;;;5095585;27;20379;-75
2023/05/07 03:37:39;;;;;;;38.13;25.40;;;14.00;99.90;;;;;;5094269;28;20051;-73
2023/05/07 03:40:06;;;;;;;40.95;27.73;;;14.90;99.90;;;;;;5095454;27;20130;-75
2023/05/07 03:42:32;;;;;;;36.95;23.10;;;15.10;99.90;;;;;;5103389;27;20047;-76
2023/05/07 03:44:57;;;;;;;37.53;26.55;;;13.20;99.90;;;;;;5076504;28;20126;-76
2023/05/07 03:47:23;;;;;;;40.60;27.85;;;13.40;99.90;;;;;;5092870;27;20043;-78
2023/05/07 03:49:50;;;;;;;37.85;25.85;;;13.50;99.90;;;;;;5095066;28;20758;-77
2023/05/07 03:52:16;;;;;;;42.95;29.20;;;13.30;99.90;;;;;;5078934;28;20034;-77
2023/05/07 03:54:41;;;;;;;41.40;26.48;;;14.20;99.90;;;;;;5094961;28;20028;-75
2023/05/07 03:57:07;;;;;;;38.58;26.95;;;13.60;99.90;;;;;;5089574;28;20039;-75
2023/05/07 03:59:33;;;;;;;37.80;26.70;;;14.40;99.90;;;;;;5118345;27;20043;-75
2023/05/07 04:01:58;;;;;;;39.55;25.13;;;15.80;99.90;;;;;;5124110;27;20078;-75
2023/05/07 04:04:24;;;;;;;38.80;27.10;;;15.90;99.90;;;;;;5092715;27;20468;-76
2023/05/07 04:06:50;;;;;;;42.72;30.63;;;13.00;99.90;;;;;;5092651;28;20036;-74
2023/05/07 04:09:16;;;;;;;41.17;26.65;;;13.30;99.90;;;;;;5089361;28;20028;-75
2023/05/07 04:11:41;;;;;;;39.08;26.85;;;15.40;99.90;;;;;;5095145;28;20083;-78
2023/05/07 04:14:07;;;;;;;41.90;28.67;;;12.90;99.90;;;;;;5087054;28;20058;-78
2023/05/07 04:16:34;;;;;;;36.78;26.40;;;16.10;99.90;;;;;;5092048;27;20082;-79
2023/05/07 04:19:00;;;;;;;37.25;26.35;;;15.80;99.90;;;;;;5091518;28;20032;-79
2023/05/07 04:21:26;;;;;;;40.05;27.92;;;16.10;99.90;;;;;;5055918;27;20105;-81
2023/05/07 04:23:52;;;;;;;30.70;22.25;;;16.10;99.90;;;;;;5059568;27;20119;-79
2023/05/07 04:26:17;;;;;;;29.83;21.95;;;16.00;99.90;;;;;;5088497;28;20517;-77
2023/05/07 04:28:43;;;;;;;29.02;21.40;;;12.90;99.90;;;;;;5092651;27;20047;-79
2023/05/07 04:31:09;;;;;;;33.20;25.70;;;15.30;99.90;;;;;;5091889;28;20043;-79
2023/05/07 04:33:35;;;;;;;32.58;25.05;;;15.30;99.90;;;;;;5089553;27;20392;-77
2023/05/07 04:36:04;;;;;;;35.58;25.15;;;14.20;99.90;;;;;;5087334;27;20082;-73
2023/05/07 04:38:31;;;;;;;35.67;25.67;;;15.80;99.90;;;;;;5071275;27;20052;-76
2023/05/07 04:40:57;;;;;;;32.80;23.05;;;13.80;99.90;;;;;;5089821;27;20036;-76
2023/05/07 04:43:23;;;;;;;34.13;24.08;;;12.60;99.90;;;;;;5087262;27;20051;-75
2023/05/07 04:45:51;;;;;;;33.40;25.98;;;12.60;99.90;;;;;;5099048;28;20605;-77
2023/05/07 04:48:19;;;;;;;34.67;24.33;;;13.10;99.90;;;;;;5068153;27;20055;-76
2023/05/07 04:50:47;;;;;;;34.40;23.80;;;12.70;99.90;;;;;;5089055;28;20101;-75
2023/05/07 04:53:12;;;;;;;31.23;23.50;;;15.40;99.90;;;;;;5087282;27;20077;-77
2023/05/07 04:55:38;;;;;;;24.92;17.83;;;14.40;99.90;;;;;;5085455;28;20039;-79
2023/05/07 04:58:04;;;;;;;35.80;26.10;;;13.40;99.90;;;;;;5037159;28;20042;-76
2023/05/07 05:00:30;;;;;;;31.60;22.27;;;15.00;99.90;;;;;;5094897;28;20130;-75
2023/05/07 05:02:56;;;;;;;30.67;23.08;;;12.20;99.90;;;;;;5088399;28;20521;-76
2023/05/07 05:05:22;;;;;;;31.70;24.27;;;12.80;99.90;;;;;;5085980;27;20040;-78
2023/05/07 05:07:47;;;;;;;35.20;25.10;;;14.10;99.90;;;;;;5106326;28;20031;-77
2023/05/07 05:10:13;;;;;;;32.38;21.35;;;12.50;99.90;;;;;;5092179;28;20131;-76
2023/05/07 05:12:39;;;;;;;29.17;21.15;;;14.20;99.90;;;;;;5089227;28;20036;-75
2023/05/07 05:15:06;;;;;;;30.05;22.00;;;14.40;99.90;;;;;;5089323;28;20031;-78
2023/05/07 05:17:31;;;;;;;25.67;18.30;;;13.80;99.90;;;;;;5063568;28;20036;-78
2023/05/07 05:19:57;;;;;;;32.35;22.92;;;15.30;99.90;;;;;;5099201;28;20561;-75
2023/05/07 05:22:22;;;;;;;32.90;23.02;;;16.90;99.90;;;;;;5104268;27;20069;-74
2023/05/07 05:24:48;;;;;;;31.67;20.60;;;12.20;99.90;;;;;;5118438;27;20051;-74
2023/05/07 05:27:14;;;;;;;26.90;18.60;;;15.60;99.90;;;;;;5088218;28;20042;-75
2023/05/07 05:29:39;;;;;;;30.48;20.05;;;12.50;99.90;;;;;;5065953;28;20039;-76
2023/05/07 05:32:05;;;;;;;34.00;24.17;;;13.40;99.90;;;;;;5087386;28;20062;-77
2023/05/07 05:34:32;;;;;;;28.90;15.90;;;12.00;99.90;;;;;;5084540;28;20088;-76
2023/05/07 05:36:59;;;;;;;32.20;23.85;;;12.90;99.90;;;;;;5064351;27;20468;-74
2023/05/07 05:39:25;;;;;;;31.08;23.58;;;16.80;99.90;;;;;;5107561;27;20122;-76
2023/05/07 05:41:51;;;;;;;37.40;26.98;;;13.70;99.90;;;;;;5102935;27;20131;-77
2023/05/07 05:44:16;;;;;;;36.85;26.75;;;12.20;99.90;;;;;;5073210;28;20055;-74
2023/05/07 05:46:42;;;;;;;41.97;30.30;;;14.40;99.90;;;;;;5082970;27;20503;-76
2023/05/07 05:49:08;;;;;;;30.73;20.23;;;14.90;99.90;;;;;;5091263;28;20044;-76
2023/05/07 05:51:34;;;;;;;31.58;21.80;;;12.80;99.90;;;;;;5087166;27;20136;-77
2023/05/07 05:53:59;;;;;;;31.63;24.13;;;15.30;99.90;;;;;;5115011;27;20101;-76
2023/05/07 05:56:25;;;;;;;30.30;22.50;;;13.20;99.90;;;;;;5088239;28;20128;-77
2023/05/07 05:58:51;;;;;;;29.55;22.02;;;15.10;99.90;;;;;;5086300;27;20032;-77
2023/05/07 06:01:18;;;;;;;30.98;22.75;;;15.80;99.90;;;;;;5070330;28;20047;-78
2023/05/07 06:03:44;;;;;;;29.95;22.52;;;14.80;99.90;;;;;;5117175;27;20874;-77
2023/05/07 06:06:09;;;;;;;32.95;22.63;;;13.70;99.90;;;;;;5079717;28;20035;-75
2023/05/07 06:08:35;;;;;;;35.55;26.13;;;12.40;99.90;;;;;;5069809;28;20157;-76
2023/05/07 06:11:02;;;;;;;35.00;24.70;;;13.10;99.90;;;;;;5070320;28;20036;-74
2023/05/07 06:13:28;;;;;;;38.22;26.85;;;15.40;99.90;;;;;;5073933;28;20128;-77
2023/05/07 06:15:53;;;;;;;43.20;30.25;;;12.90;99.90;;;;;;5085229;28;20069;-75
2023/05/07 06:18:19;;;;;;;41.90;31.23;;;12.90;99.90;;;;;;5086648;28;20118;-77
2023/05/07 06:20:45;;;;;;;44.13;32.30;;;13.20;99.90;;;;;;5085661;28;20051;-77
2023/05/07 06:23:10;;;;;;;40.78;29.02;;;15.00;99.90;;;;;;5071323;28;20035;-79
2023/05/07 06:25:36;;;;;;;42.30;30.60;;;12.40;99.90;;;;;;5088327;28;20432;-77
2023/05/07 06:28:02;;;;;;;42.00;29.55;;;15.70;99.90;;;;;;5069614;28;20050;-78
2023/05/07 06:30:27;;;;;;;34.83;24.08;;;12.50;99.90;;;;;;5051735;28;20084;-75
2023/05/07 06:32:53;;;;;;;39.50;28.83;;;15.80;99.90;;;;;;5052604;28;20036;-76
2023/05/07 06:35:19;;;;;;;32.30;19.27;;;12.40;99.90;;;;;;5081846;28;20032;-76
2023/05/07 06:37:44;;;;;;;28.15;19.17;;;16.50;99.90;;;;;;5102114;28;20056;-79
2023/05/07 06:40:11;;;;;;;30.85;21.00;;;16.40;99.90;;;;;;5115153;27;20119;-78
2023/05/07 06:42:37;;;;;;;30.05;21.98;;;13.10;99.90;;;;;;5063285;28;20047;-77
2023/05/07 06:45:03;;;;;;;29.83;21.65;;;16.40;99.90;;;;;;5103169;28;20054;-76
2023/05/07 06:47:29;;;;;;;31.52;22.38;;;16.40;99.90;;;;;;5073990;28;20050;-76
2023/05/07 06:49:55;;;;;;;31.08;20.67;;;15.20;99.90;;;;;;5089103;28;20040;-76
2023/05/07 06:52:21;;;;;;;24.75;17.63;;;15.60;99.90;;;;;;5050777;28;20051;-78
2023/05/07 06:54:46;;;;;;;26.73;19.05;;;16.20;99.90;;;;;;5106382;28;20039;-76
2023/05/07 06:57:13;;;;;;;32.35;23.48;;;16.50;99.90;;;;;;5084988;28;20047;-76
2023/05/07 06:59:42;;;;;;;23.40;15.38;;;14.20;99.90;;;;;;5056263;28;20039;-81
2023/05/07 07:02:08;;;;;;;24.45;16.67;;;16.00;99.90;;;;;;5053386;28;20640;-76
2023/05/07 07:04:34;;;;;;;29.45;20.95;;;13.30;99.90;;;;;;5056277;28;20683;-77
2023/05/07 07:07:00;;;;;;;25.63;15.25;;;12.70;99.90;;;;;;5091816;28;20042;-78
2023/05/07 07:09:26;;;;;;;28.08;19.70;;;12.80;99.90;;;;;;5034865;28;20116;-78
2023/05/07 07:11:52;;;;;;;23.42;16.50;;;13.10;99.90;;;;;;5034971;28;20054;-78
2023/05/07 07:14:20;;;;;;;26.08;16.75;;;13.50;99.90;;;;;;5065676;28;20126;-76
2023/05/07 07:16:46;;;;;;;26.83;17.70;;;14.50;99.90;;;;;;5098489;28;20069;-77
2023/05/07 07:19:12;;;;;;;30.73;21.88;;;15.00;99.90;;;;;;5050563;28;20117;-76
2023/05/07 07:21:41;;;;;;;27.60;18.95;;;13.10;99.90;;;;;;5074066;28;20048;-79
2023/05/07 07:24:08;;;;;;;27.23;20.23;;;15.10;99.90;;;;;;5057869;28;20040;-78
2023/05/07 07:26:34;;;;;;;28.55;18.55;;;13.60;99.90;;;;;;5076623;28;20035;-77
2023/05/07 07:29:00;;;;;;;24.92;17.60;;;13.90;99.90;;;;;;5074082;28;20036;-78
2023/05/07 07:31:25;;;;;;;28.15;18.70;;;14.40;99.90;;;;;;5066961;28;20073;-74
2023/05/07 07:33:51;;;;;;;25.85;18.52;;;14.50;99.90;;;;;;5063444;28;20126;-75
2023/05/07 07:36:17;;;;;;;26.45;18.45;;;16.00;99.90;;;;;;5101412;28;20031;-76
2023/05/07 07:38:43;;;;;;;27.75;18.63;;;16.10;99.90;;;;;;5075516;28;20038;-79
2023/05/07 07:41:09;;;;;;;25.02;17.35;;;16.30;99.90;;;;;;5076432;28;20139;-78
2023/05/07 07:43:35;;;;;;;25.00;19.85;;;14.90;99.90;;;;;;5057504;28;20062;-76
2023/05/07 07:46:01;;;;;;;25.70;18.30;;;16.20;99.90;;;;;;5098208;28;20089;-77
2023/05/07 07:48:27;;;;;;;24.77;16.67;;;15.80;99.90;;;;;;5085834;28;20039;-81
2023/05/07 07:50:52;;;;;;;30.42;20.85;;;13.20;99.90;;;;;;5069141;28;20065;-81
2023/05/07 07:53:18;;;;;;;29.30;21.67;;;13.60;99.90;;;;;;5089959;28;20551;-81
2023/05/07 07:55:44;;;;;;;28.65;18.27;;;15.60;99.90;;;;;;5100155;28;20040;-78
2023/05/07 07:58:10;;;;;;;28.65;21.30;;;15.90;99.90;;;;;;5103832;28;20689;-79
2023/05/07 08:00:36;;;;;;;29.67;20.98;;;14.90;99.90;;;;;;5103851;28;20860;-77
2023/05/07 08:03:03;;;;;;;28.52;21.38;;;13.90;99.90;;;;;;5071061;28;20039;-78
2023/05/07 08:05:29;;;;;;;24.92;19.13;;;15.40;99.90;;;;;;5053972;28;20062;-77
2023/05/07 08:07:58;;;;;;;27.38;20.45;;;14.90;99.90;;;;;;5077898;28;20040;-74
2023/05/07 08:10:24;;;;;;;26.67;18.55;;;16.20;99.90;;;;;;5087337;28;20044;-75
2023/05/07 08:12:51;;;;;;;28.55;20.60;;;15.40;99.90;;;;;;5068009;28;20602;-75
2023/05/07 08:15:18;;;;;;;29.13;21.08;;;16.20;99.90;;;;;;5099783;28;21612;-76
2023/05/07 08:17:48;;;;;;;27.52;18.83;;;15.70;99.90;;;;;;5089686;28;20031;-75
2023/05/07 08:20:18;;;;;;;24.58;17.30;;;14.80;99.90;;;;;;5069963;28;20056;-73
2023/05/07 08:22:45;;;;;;;33.95;23.88;;;14.20;99.90;;;;;;5074505;28;20043;-76
2023/05/07 08:25:13;;;;;;;28.33;19.27;;;15.20;99.90;;;;;;5091754;28;20047;-78
2023/05/07 08:27:39;;;;;;;29.15;19.80;;;14.50;99.90;;;;;;5075415;28;20123;-78
2023/05/07 08:30:05;;;;;;;27.35;18.05;;;15.10;99.90;;;;;;5063174;28;20463;-75
2023/05/07 08:32:31;;;;;;;30.88;21.17;;;15.60;99.90;;;;;;5074549;28;20035;-77
2023/05/07 08:34:57;;;;;;;25.40;17.35;;;15.60;99.90;;;;;;5071425;28;20499;-73
2023/05/07 08:37:23;;;;;;;28.65;21.67;;;15.00;99.90;;;;;;5084512;28;20056;-74
2023/05/07 08:39:48;;;;;;;29.38;22.20;;;15.20;99.90;;;;;;5055056;28;20499;-76
2023/05/07 08:42:17;;;;;;;31.67;22.83;;;16.30;99.90;;;;;;5091788;28;20119;-77
2023/05/07 08:44:48;;;;;;;27.30;19.40;;;15.40;99.90;;;;;;5107585;28;20797;-79
2023/05/07 08:47:14;;;;;;;29.42;20.42;;;16.40;99.90;;;;;;5075948;28;20306;-78
2023/05/07 08:49:41;;;;;;;30.42;21.88;;;15.20;99.90;;;;;;5063509;28;20039;-79
2023/05/07 08:52:07;;;;;;;24.50;16.30;;;16.40;99.90;;;;;;5120185;27;20039;-77
2023/05/07 08:54:33;;;;;;;26.13;19.05;;;14.50;99.90;;;;;;5105406;28;20046;-74
2023/05/07 08:56:59;;;;;;;21.50;13.75;;;16.60;99.90;;;;;;5078447;28;20042;-77
2023/05/07 08:59:25;;;;;;;27.05;18.30;;;16.60;99.90;;;;;;5120373;27;20031;-75
2023/05/07 09:01:51;;;;;;;26.60;18.55;;;14.50;99.90;;;;;;5073970;28;20042;-75
2023/05/07 09:04:17;;;;;;;22.98;17.00;;;16.40;99.90;;;;;;5073333;28;20040;-78
2023/05/07 09:06:43;;;;;;;27.60;21.10;;;16.60;99.90;;;;;;5106750;28;20039;-79
2023/05/07 09:09:17;;;;;;;26.17;19.02;;;14.80;99.90;;;;;;5056865;28;20174;-76
2023/05/07 09:11:43;;;;;;;29.10;21.70;;;15.50;99.90;;;;;;5091210;28;20130;-79
2023/05/07 09:14:14;;;;;;;27.80;19.30;;;15.30;99.90;;;;;;5090823;28;20126;-78
2023/05/07 09:16:40;;;;;;;31.35;20.60;;;16.40;99.90;;;;;;5057372;28;20106;-76
2023/05/07 09:19:06;;;;;;;26.88;19.55;;;16.70;99.90;;;;;;5075059;28;20114;-78
2023/05/07 09:21:32;;;;;;;28.95;19.73;;;16.00;99.90;;;;;;5069042;28;20051;-76
2023/05/07 09:23:57;;;;;;;26.80;19.48;;;15.70;99.90;;;;;;5091724;28;20036;-74
2023/05/07 09:26:24;;;;;;;23.65;17.17;;;15.50;99.90;;;;;;5089582;28;20040;-76
2023/05/07 09:28:59;;;;;;;25.77;18.70;;;17.20;99.90;;;;;;5103413;28;20089;-79
2023/05/07 09:31:25;;;;;;;24.58;15.05;;;15.20;99.90;;;;;;5094411;28;20044;-75
2023/05/07 09:33:56;;;;;;;25.80;19.65;;;15.90;99.90;;;;;;5067210;28;20839;-73
2023/05/07 09:36:25;;;;;;;26.75;20.17;;;16.70;99.90;;;;;;5071508;28;20074;-73
2023/05/07 09:38:56;;;;;;;28.35;19.67;;;15.70;99.90;;;;;;5077354;27;20055;-75
2023/05/07 09:41:22;;;;;;;23.35;16.38;;;15.70;99.90;;;;;;5070427;28;20044;-76
2023/05/07 09:43:54;;;;;;;22.70;14.73;;;15.90;99.90;;;;;;5065096;28;20042;-73
2023/05/07 09:46:29;;;;;;;24.58;18.50;;;16.40;99.90;;;;;;5072537;28;20097;-75
2023/05/07 09:48:58;;;;;;;25.45;17.70;;;16.10;99.90;;;;;;5067833;28;20061;-76
2023/05/07 09:51:25;;;;;;;22.98;15.55;;;17.00;99.90;;;;;;5094606;27;20048;-75
2023/05/07 09:53:53;;;;;;;25.58;18.92;;;16.30;99.90;;;;;;5083134;27;20046;-75
2023/05/07 09:56:19;;;;;;;24.33;16.10;;;16.00;99.90;;;;;;5080399;28;20035;-75
2023/05/07 09:58:51;;;;;;;25.13;17.83;;;17.30;99.90;;;;;;5107112;27;20075;-77
2023/05/07 10:01:20;;;;;;;23.40;17.13;;;16.30;99.90;;;;;;5080336;28;20044;-77
2023/05/07 10:03:46;;;;;;;22.73;18.02;;;16.70;99.90;;;;;;5079964;27;20043;-75
2023/05/07 10:06:14;;;;;;;24.52;19.38;;;17.60;99.90;;;;;;5106286;27;20043;-75
2023/05/07 10:08:40;;;;;;;20.77;16.13;;;17.70;99.90;;;;;;5090551;28;20138;-79
2023/05/07 10:11:06;;;;;;;21.25;15.63;;;17.70;99.90;;;;;;5093445;27;20031;-79
2023/05/07 10:13:38;;;;;;;22.58;15.55;;;17.20;99.90;;;;;;5103922;28;20614;-76
2023/05/07 10:16:05;;;;;;;21.92;18.05;;;16.70;99.90;;;;;;5105254;27;20040;-75
2023/05/07 10:18:34;;;;;;;20.98;15.88;;;16.40;99.90;;;;;;5061909;27;20039;-77
2023/05/07 10:21:25;;;;;;;18.23;14.80;;;16.70;99.90;;;;;;5103091;28;20047;-74
2023/05/07 10:24:00;;;;;;;22.67;16.00;;;17.80;99.90;;;;;;5068526;28;20046;-78
2023/05/07 10:26:36;;;;;;;22.42;15.60;;;17.50;99.90;;;;;;5067963;28;20514;-78
2023/05/07 10:29:12;;;;;;;22.35;17.20;;;16.80;99.90;;;;;;5098180;28;20373;-80
2023/05/07 10:31:57;;;;;;;18.52;14.50;;;17.30;99.90;;;;;;5102876;28;20029;-78
2023/05/07 10:35:09;;;;;;;18.63;14.27;;;18.00;99.90;;;;;;5069560;28;20488;-80
2023/05/07 10:40:36;;;;;;;15.27;12.60;;;18.40;99.90;;;;;;5114724;27;20048;-80
2023/05/07 10:43:09;;;;;;;17.92;15.27;;;17.70;99.90;;;;;;5068940;28;20042;-84
2023/05/07 10:45:37;;;;;;;18.35;14.43;;;17.30;99.90;;;;;;5084933;28;20089;-80
2023/05/07 10:48:13;;;;;;;15.18;13.52;;;17.20;99.90;;;;;;5052577;28;20090;-82
2023/05/07 10:50:40;;;;;;;15.45;12.05;;;17.10;99.90;;;;;;5085634;28;20074;-78
2023/05/07 10:53:25;;;;;;;19.08;15.23;;;17.40;99.90;;;;;;5069452;28;20040;-75
2023/05/07 10:56:20;;;;;;;17.92;13.15;;;17.50;99.90;;;;;;5048823;28;20185;-77
2023/05/07 10:58:45;;;;;;;20.60;16.13;;;17.70;99.90;;;;;;5067162;28;20043;-79
2023/05/07 11:01:12;;;;;;;16.20;14.02;;;17.80;99.90;;;;;;5069898;28;20396;-78
2023/05/07 11:04:17;;;;;;;17.67;14.43;;;17.00;99.90;;;;;;5082238;28;20036;-78
2023/05/07 11:07:08;;;;;;;16.92;15.15;;;16.90;99.90;;;;;;5082910;28;20051;-79
2023/05/07 11:10:01;;;;;;;17.02;15.23;;;17.70;99.90;;;;;;5082187;28;20040;-80
2023/05/07 11:12:39;;;;;;;15.45;13.10;;;18.20;99.90;;;;;;5065901;28;20392;-76
2023/05/07 11:15:07;;;;;;;15.85;13.88;;;18.00;99.90;;;;;;5068449;28;20032;-78
2023/05/07 11:17:36;;;;;;;14.23;12.35;;;18.20;99.90;;;;;;5069949;28;20052;-77
2023/05/07 11:20:04;;;;;;;13.10;11.15;;;17.80;99.90;;;;;;5047495;28;20059;-81
2023/05/07 11:22:34;;;;;;;14.65;13.07;;;18.20;99.90;;;;;;5049904;28;20051;-75
2023/05/07 11:25:04;;;;;;;14.93;13.15;;;18.30;99.90;;;;;;5066917;28;20032;-78
2023/05/07 11:27:30;;;;;;;15.30;12.27;;;18.00;99.90;;;;;;5066976;28;20043;-81
2023/05/07 11:29:56;;;;;;;17.15;12.85;;;18.10;99.90;;;;;;5068779;28;20400;-80
2023/05/07 11:32:29;;;;;;;13.93;11.38;;;19.20;99.90;;;;;;5068396;28;20092;-78
2023/05/07 11:34:56;;;;;;;14.23;12.02;;;19.10;99.90;;;;;;5038999;28;20041;-76
2023/05/07 11:37:23;;;;;;;14.18;12.68;;;18.20;99.90;;;;;;5069241;28;20054;-79
2023/05/07 11:39:54;;;;;;;15.00;13.02;;;18.60;99.90;;;;;;5068492;28;20417;-78
2023/05/07 11:42:31;;;;;;;13.73;12.32;;;19.10;99.90;;;;;;5068764;28;20048;-80
2023/05/07 11:44:58;;;;;;;12.50;10.70;;;19.10;99.90;;;;;;5097822;28;20051;-76
2023/05/07 11:47:25;;;;;;;12.77;10.90;;;19.20;99.90;;;;;;5068296;28;20036;-82
2023/05/07 11:49:53;;;;;;;14.82;13.10;;;18.90;99.90;;;;;;5061027;28;20534;-80
2023/05/07 11:52:21;;;;;;;15.65;14.00;;;18.30;99.90;;;;;;5084075;28;20048;-79
2023/05/07 11:54:57;;;;;;;13.10;9.57;;;18.90;99.90;;;;;;5052165;28;20040;-81
2023/05/07 11:57:24;;;;;;;14.25;12.45;;;18.50;99.90;;;;;;5069643;28;20040;-79
2023/05/07 11:59:57;;;;;;;12.30;10.73;;;19.60;99.90;;;;;;5066153;28;20047;-75
2023/05/07 12:02:27;;;;;;;14.57;10.45;;;19.00;99.90;;;;;;5064482;28;20173;-75
2023/05/07 12:04:56;;;;;;;14.25;10.57;;;18.90;99.90;;;;;;5068971;28;20037;-78
2023/05/07 12:07:24;;;;;;;11.82;9.38;;;19.10;99.90;;;;;;5052507;28;20797;-80
2023/05/07 12:09:50;;;;;;;12.05;10.82;;;18.80;99.90;;;;;;5066470;28;20041;-75
2023/05/07 12:12:17;;;;;;;14.80;11.50;;;19.30;99.90;;;;;;5073363;28;20051;-78
2023/05/07 12:14:46;;;;;;;13.95;12.55;;;19.20;99.90;;;;;;5119146;27;20036;-78
2023/05/07 12:17:13;;;;;;;14.25;12.75;;;19.40;99.90;;;;;;5067502;28;20480;-77
2023/05/07 12:19:41;;;;;;;15.55;13.32;;;19.90;99.90;;;;;;5086276;28;20043;-75
2023/05/07 12:22:10;;;;;;;13.88;12.38;;;20.10;99.90;;;;;;5072207;28;20044;-76
2023/05/07 12:24:58;;;;;;;14.15;12.75;;;19.60;99.90;;;;;;5052785;28;20036;-74
2023/05/07 12:27:28;;;;;;;14.27;12.82;;;19.90;99.90;;;;;;5070685;28;20108;-75
2023/05/07 12:29:57;;;;;;;13.70;12.30;;;19.80;99.90;;;;;;5068218;28;20046;-78
2023/05/07 12:32:43;;;;;;;14.10;12.50;;;19.80;99.90;;;;;;5065981;28;20085;-75